sensor_id;sensor_type;location;lat;lon;timestamp;P1;durP1;ratioP1;P2;durP2;ratioP2
25409;SDS011;13339;50.840;4.346;2024-01-15T00:01:26;40.23;;;18.00;;
25409;SDS011;13339;50.840;4.346;2024-01-15T00:03:52;39.47;;;18.17;;
25409;SDS011;13339;50.840;4.346;2024-01-15T00:06:18;41.47;;;18.20;;
25409;SDS011;13339;50.840;4.346;2024-01-15T00:08:43;40.23;;;18.07;;
25409;SDS011;13339;50.840;4.346;2024-01-15T00:11:09;39.17;;;17.90;;
25409;SDS011;13339;50.840;4.346;2024-01-15T00:13:34;36.83;;;16.70;;
25409;SDS011;13339;50.840;4.346;2024-01-15T00:16:00;40.17;;;17.20;;
25409;SDS011;13339;50.840;4.346;2024-01-15T00:18:25;30.83;;;15.77;;
25409;SDS011;13339;50.840;4.346;2024-01-15T00:20:51;37.77;;;17.23;;
25409;SDS011;13339;50.840;4.346;2024-01-15T00:23:16;32.53;;;15.90;;
25409;SDS011;13339;50.840;4.346;2024-01-15T00:25:42;32.23;;;15.03;;
25409;SDS011;13339;50.840;4.346;2024-01-15T00:28:08;29.03;;;14.27;;
25409;SDS011;13339;50.840;4.346;2024-01-15T00:30:33;33.00;;;15.57;;
25409;SDS011;13339;50.840;4.346;2024-01-15T00:32:59;32.43;;;14.20;;
25409;SDS011;13339;50.840;4.346;2024-01-15T00:35:24;33.07;;;15.53;;
25409;SDS011;13339;50.840;4.346;2024-01-15T00:37:50;28.20;;;14.57;;
25409;SDS011;13339;50.840;4.346;2024-01-15T00:40:15;32.13;;;15.17;;
25409;SDS011;13339;50.840;4.346;2024-01-15T00:42:41;30.63;;;14.00;;
25409;SDS011;13339;50.840;4.346;2024-01-15T00:45:06;30.13;;;13.23;;
25409;SDS011;13339;50.840;4.346;2024-01-15T00:47:33;28.90;;;13.93;;
25409;SDS011;13339;50.840;4.346;2024-01-15T00:49:59;24.97;;;12.93;;
25409;SDS011;13339;50.840;4.346;2024-01-15T00:52:25;27.60;;;12.50;;
25409;SDS011;13339;50.840;4.346;2024-01-15T00:54:51;30.73;;;12.57;;
25409;SDS011;13339;50.840;4.346;2024-01-15T00:57:16;22.33;;;12.07;;
25409;SDS011;13339;50.840;4.346;2024-01-15T00:59:44;20.70;;;11.13;;
25409;SDS011;13339;50.840;4.346;2024-01-15T01:02:09;23.60;;;11.53;;
25409;SDS011;13339;50.840;4.346;2024-01-15T01:04:35;19.20;;;10.47;;
25409;SDS011;13339;50.840;4.346;2024-01-15T01:07:01;16.37;;;9.80;;
25409;SDS011;13339;50.840;4.346;2024-01-15T01:09:26;16.73;;;9.27;;
25409;SDS011;13339;50.840;4.346;2024-01-15T01:11:55;19.50;;;9.37;;
25409;SDS011;13339;50.840;4.346;2024-01-15T01:14:21;14.13;;;8.57;;
25409;SDS011;13339;50.840;4.346;2024-01-15T01:16:47;15.20;;;7.70;;
25409;SDS011;13339;50.840;4.346;2024-01-15T01:19:12;13.63;;;7.57;;
25409;SDS011;13339;50.840;4.346;2024-01-15T01:21:38;15.77;;;8.00;;
25409;SDS011;13339;50.840;4.346;2024-01-15T01:24:03;11.67;;;6.60;;
25409;SDS011;13339;50.840;4.346;2024-01-15T01:26:29;12.27;;;6.47;;
25409;SDS011;13339;50.840;4.346;2024-01-15T01:28:55;11.23;;;7.03;;
25409;SDS011;13339;50.840;4.346;2024-01-15T01:31:21;12.40;;;6.07;;
25409;SDS011;13339;50.840;4.346;2024-01-15T01:33:46;12.03;;;7.07;;
25409;SDS011;13339;50.840;4.346;2024-01-15T01:36:12;15.97;;;7.57;;
25409;SDS011;13339;50.840;4.346;2024-01-15T01:38:38;14.07;;;8.07;;
25409;SDS011;13339;50.840;4.346;2024-01-15T01:41:04;14.50;;;7.77;;
25409;SDS011;13339;50.840;4.346;2024-01-15T01:43:30;12.43;;;7.53;;
25409;SDS011;13339;50.840;4.346;2024-01-15T01:45:56;13.20;;;6.87;;
25409;SDS011;13339;50.840;4.346;2024-01-15T01:48:23;11.20;;;6.53;;
25409;SDS011;13339;50.840;4.346;2024-01-15T01:50:51;15.30;;;6.13;;
25409;SDS011;13339;50.840;4.346;2024-01-15T01:53:24;10.97;;;5.67;;
25409;SDS011;13339;50.840;4.346;2024-01-15T01:55:51;11.00;;;5.20;;
25409;SDS011;13339;50.840;4.346;2024-01-15T01:58:18;10.20;;;6.13;;
25409;SDS011;13339;50.840;4.346;2024-01-15T02:00:45;9.20;;;6.00;;
25409;SDS011;13339;50.840;4.346;2024-01-15T02:03:12;10.60;;;6.00;;
25409;SDS011;13339;50.840;4.346;2024-01-15T02:05:37;9.60;;;5.80;;
25409;SDS011;13339;50.840;4.346;2024-01-15T02:08:05;8.87;;;5.10;;
25409;SDS011;13339;50.840;4.346;2024-01-15T02:10:30;9.57;;;5.03;;
25409;SDS011;13339;50.840;4.346;2024-01-15T02:12:57;7.67;;;4.60;;
25409;SDS011;13339;50.840;4.346;2024-01-15T02:15:23;7.13;;;4.20;;
25409;SDS011;13339;50.840;4.346;2024-01-15T02:18:04;9.57;;;4.67;;
25409;SDS011;13339;50.840;4.346;2024-01-15T02:20:32;8.23;;;4.47;;
25409;SDS011;13339;50.840;4.346;2024-01-15T02:25:40;9.47;;;4.77;;
25409;SDS011;13339;50.840;4.346;2024-01-15T02:28:07;8.17;;;4.53;;
25409;SDS011;13339;50.840;4.346;2024-01-15T02:30:38;7.30;;;3.97;;
25409;SDS011;13339;50.840;4.346;2024-01-15T02:33:05;9.37;;;4.43;;
25409;SDS011;13339;50.840;4.346;2024-01-15T02:35:31;7.13;;;3.70;;
25409;SDS011;13339;50.840;4.346;2024-01-15T02:37:58;6.97;;;3.90;;
25409;SDS011;13339;50.840;4.346;2024-01-15T02:40:23;7.10;;;4.07;;
25409;SDS011;13339;50.840;4.346;2024-01-15T02:42:49;8.97;;;4.60;;
25409;SDS011;13339;50.840;4.346;2024-01-15T02:45:15;10.13;;;5.00;;
25409;SDS011;13339;50.840;4.346;2024-01-15T02:47:40;12.37;;;6.43;;
25409;SDS011;13339;50.840;4.346;2024-01-15T02:50:06;13.47;;;6.40;;
25409;SDS011;13339;50.840;4.346;2024-01-15T02:52:32;13.80;;;7.20;;
25409;SDS011;13339;50.840;4.346;2024-01-15T02:54:57;16.90;;;7.83;;
25409;SDS011;13339;50.840;4.346;2024-01-15T02:57:23;17.17;;;8.63;;
25409;SDS011;13339;50.840;4.346;2024-01-15T02:59:48;17.10;;;8.73;;
25409;SDS011;13339;50.840;4.346;2024-01-15T03:02:14;19.07;;;9.73;;
25409;SDS011;13339;50.840;4.346;2024-01-15T03:04:43;17.83;;;9.03;;
25409;SDS011;13339;50.840;4.346;2024-01-15T03:07:09;22.57;;;10.23;;
25409;SDS011;13339;50.840;4.346;2024-01-15T03:09:35;18.83;;;10.50;;
25409;SDS011;13339;50.840;4.346;2024-01-15T03:12:00;19.47;;;10.30;;
25409;SDS011;13339;50.840;4.346;2024-01-15T03:14:26;20.47;;;10.40;;
25409;SDS011;13339;50.840;4.346;2024-01-15T03:16:52;20.70;;;9.97;;
25409;SDS011;13339;50.840;4.346;2024-01-15T03:19:18;19.83;;;10.77;;
25409;SDS011;13339;50.840;4.346;2024-01-15T03:21:43;20.70;;;11.57;;
25409;SDS011;13339;50.840;4.346;2024-01-15T03:24:09;19.67;;;10.97;;
25409;SDS011;13339;50.840;4.346;2024-01-15T03:26:35;19.70;;;11.50;;
25409;SDS011;13339;50.840;4.346;2024-01-15T03:29:00;24.50;;;11.00;;
25409;SDS011;13339;50.840;4.346;2024-01-15T03:31:26;18.57;;;10.87;;
25409;SDS011;13339;50.840;4.346;2024-01-15T03:33:51;20.90;;;10.97;;
25409;SDS011;13339;50.840;4.346;2024-01-15T03:36:17;20.33;;;11.50;;
25409;SDS011;13339;50.840;4.346;2024-01-15T03:38:43;23.73;;;12.87;;
25409;SDS011;13339;50.840;4.346;2024-01-15T03:41:08;24.43;;;13.83;;
25409;SDS011;13339;50.840;4.346;2024-01-15T03:43:34;22.83;;;12.40;;
25409;SDS011;13339;50.840;4.346;2024-01-15T03:46:00;22.37;;;12.10;;
25409;SDS011;13339;50.840;4.346;2024-01-15T03:48:27;21.57;;;11.47;;
25409;SDS011;13339;50.840;4.346;2024-01-15T03:50:52;24.30;;;13.27;;
25409;SDS011;13339;50.840;4.346;2024-01-15T03:53:18;23.17;;;12.87;;
25409;SDS011;13339;50.840;4.346;2024-01-15T03:55:44;25.67;;;14.10;;
25409;SDS011;13339;50.840;4.346;2024-01-15T03:58:09;29.27;;;13.57;;
25409;SDS011;13339;50.840;4.346;2024-01-15T04:00:35;28.53;;;14.33;;
25409;SDS011;13339;50.840;4.346;2024-01-15T04:03:00;26.97;;;14.17;;
25409;SDS011;13339;50.840;4.346;2024-01-15T04:05:26;26.17;;;14.00;;
25409;SDS011;13339;50.840;4.346;2024-01-15T04:07:52;27.37;;;14.00;;
25409;SDS011;13339;50.840;4.346;2024-01-15T04:10:17;25.47;;;14.30;;
25409;SDS011;13339;50.840;4.346;2024-01-15T04:12:43;29.60;;;14.53;;
25409;SDS011;13339;50.840;4.346;2024-01-15T04:15:11;29.40;;;15.20;;
25409;SDS011;13339;50.840;4.346;2024-01-15T04:17:37;25.17;;;13.97;;
25409;SDS011;13339;50.840;4.346;2024-01-15T04:20:03;30.70;;;15.87;;
25409;SDS011;13339;50.840;4.346;2024-01-15T04:22:29;28.30;;;14.27;;
25409;SDS011;13339;50.840;4.346;2024-01-15T04:24:55;28.50;;;14.87;;
25409;SDS011;13339;50.840;4.346;2024-01-15T04:27:20;27.70;;;14.63;;
25409;SDS011;13339;50.840;4.346;2024-01-15T04:29:46;26.13;;;14.77;;
25409;SDS011;13339;50.840;4.346;2024-01-15T04:32:12;27.73;;;14.97;;
25409;SDS011;13339;50.840;4.346;2024-01-15T04:34:37;24.57;;;14.37;;
25409;SDS011;13339;50.840;4.346;2024-01-15T04:37:03;26.23;;;14.17;;
25409;SDS011;13339;50.840;4.346;2024-01-15T04:39:29;29.57;;;14.07;;
25409;SDS011;13339;50.840;4.346;2024-01-15T04:41:54;26.07;;;13.50;;
25409;SDS011;13339;50.840;4.346;2024-01-15T04:44:20;27.67;;;14.20;;
25409;SDS011;13339;50.840;4.346;2024-01-15T04:46:46;25.00;;;13.03;;
25409;SDS011;13339;50.840;4.346;2024-01-15T04:49:11;23.63;;;12.93;;
25409;SDS011;13339;50.840;4.346;2024-01-15T04:51:37;26.43;;;12.97;;
25409;SDS011;13339;50.840;4.346;2024-01-15T04:54:02;24.83;;;12.37;;
25409;SDS011;13339;50.840;4.346;2024-01-15T04:56:28;22.20;;;10.43;;
25409;SDS011;13339;50.840;4.346;2024-01-15T04:58:54;17.07;;;9.23;;
25409;SDS011;13339;50.840;4.346;2024-01-15T05:01:20;17.43;;;8.97;;
25409;SDS011;13339;50.840;4.346;2024-01-15T05:03:45;14.30;;;8.43;;
25409;SDS011;13339;50.840;4.346;2024-01-15T05:06:11;12.03;;;6.90;;
25409;SDS011;13339;50.840;4.346;2024-01-15T05:08:37;9.93;;;6.10;;
25409;SDS011;13339;50.840;4.346;2024-01-15T05:11:02;11.00;;;5.27;;
25409;SDS011;13339;50.840;4.346;2024-01-15T05:13:28;9.47;;;5.30;;
25409;SDS011;13339;50.840;4.346;2024-01-15T05:15:54;8.67;;;4.80;;
25409;SDS011;13339;50.840;4.346;2024-01-15T05:18:19;8.30;;;4.00;;
25409;SDS011;13339;50.840;4.346;2024-01-15T05:20:45;6.30;;;3.07;;
25409;SDS011;13339;50.840;4.346;2024-01-15T05:23:11;7.70;;;3.73;;
25409;SDS011;13339;50.840;4.346;2024-01-15T05:25:36;8.33;;;3.30;;
25409;SDS011;13339;50.840;4.346;2024-01-15T05:28:02;7.03;;;3.10;;
25409;SDS011;13339;50.840;4.346;2024-01-15T05:30:28;5.80;;;2.60;;
25409;SDS011;13339;50.840;4.346;2024-01-15T05:32:53;5.60;;;2.60;;
25409;SDS011;13339;50.840;4.346;2024-01-15T05:35:19;7.53;;;2.70;;
25409;SDS011;13339;50.840;4.346;2024-01-15T05:37:45;5.83;;;2.53;;
25409;SDS011;13339;50.840;4.346;2024-01-15T05:40:11;7.77;;;2.57;;
25409;SDS011;13339;50.840;4.346;2024-01-15T05:42:41;8.97;;;2.50;;
25409;SDS011;13339;50.840;4.346;2024-01-15T05:45:06;5.60;;;2.33;;
25409;SDS011;13339;50.840;4.346;2024-01-15T05:47:32;5.03;;;2.60;;
25409;SDS011;13339;50.840;4.346;2024-01-15T05:49:58;7.27;;;3.13;;
25409;SDS011;13339;50.840;4.346;2024-01-15T05:52:25;5.30;;;2.27;;
25409;SDS011;13339;50.840;4.346;2024-01-15T05:54:51;3.93;;;2.00;;
25409;SDS011;13339;50.840;4.346;2024-01-15T05:57:16;3.77;;;1.87;;
25409;SDS011;13339;50.840;4.346;2024-01-15T05:59:42;5.17;;;1.70;;
25409;SDS011;13339;50.840;4.346;2024-01-15T06:02:09;9.77;;;2.00;;
25409;SDS011;13339;50.840;4.346;2024-01-15T06:04:35;4.87;;;1.90;;
25409;SDS011;13339;50.840;4.346;2024-01-15T06:07:00;7.30;;;2.00;;
25409;SDS011;13339;50.840;4.346;2024-01-15T06:09:26;6.57;;;1.50;;
25409;SDS011;13339;50.840;4.346;2024-01-15T06:11:52;6.03;;;1.40;;
25409;SDS011;13339;50.840;4.346;2024-01-15T06:14:18;9.03;;;2.27;;
25409;SDS011;13339;50.840;4.346;2024-01-15T06:16:43;6.07;;;1.30;;
25409;SDS011;13339;50.840;4.346;2024-01-15T06:19:09;3.20;;;1.37;;
25409;SDS011;13339;50.840;4.346;2024-01-15T06:21:35;4.50;;;1.40;;
25409;SDS011;13339;50.840;4.346;2024-01-15T06:24:00;6.03;;;1.20;;
25409;SDS011;13339;50.840;4.346;2024-01-15T06:26:26;4.40;;;1.63;;
25409;SDS011;13339;50.840;4.346;2024-01-15T06:28:51;7.37;;;1.83;;
25409;SDS011;13339;50.840;4.346;2024-01-15T06:31:17;4.30;;;1.60;;
25409;SDS011;13339;50.840;4.346;2024-01-15T06:33:42;4.87;;;1.80;;
25409;SDS011;13339;50.840;4.346;2024-01-15T06:36:09;4.33;;;2.17;;
25409;SDS011;13339;50.840;4.346;2024-01-15T06:38:35;9.47;;;2.70;;
25409;SDS011;13339;50.840;4.346;2024-01-15T06:41:01;9.80;;;2.70;;
25409;SDS011;13339;50.840;4.346;2024-01-15T06:43:27;7.13;;;2.43;;
25409;SDS011;13339;50.840;4.346;2024-01-15T06:45:52;6.73;;;2.80;;
25409;SDS011;13339;50.840;4.346;2024-01-15T06:48:18;4.83;;;3.00;;
25409;SDS011;13339;50.840;4.346;2024-01-15T06:50:43;12.53;;;3.10;;
25409;SDS011;13339;50.840;4.346;2024-01-15T06:53:09;8.03;;;3.00;;
25409;SDS011;13339;50.840;4.346;2024-01-15T06:55:35;7.47;;;3.70;;
25409;SDS011;13339;50.840;4.346;2024-01-15T06:58:01;9.70;;;4.07;;
25409;SDS011;13339;50.840;4.346;2024-01-15T07:00:26;6.80;;;4.33;;
25409;SDS011;13339;50.840;4.346;2024-01-15T07:02:52;7.17;;;4.40;;
25409;SDS011;13339;50.840;4.346;2024-01-15T07:05:19;9.10;;;4.87;;
25409;SDS011;13339;50.840;4.346;2024-01-15T07:07:45;8.20;;;4.20;;
25409;SDS011;13339;50.840;4.346;2024-01-15T07:10:12;10.87;;;4.60;;
25409;SDS011;13339;50.840;4.346;2024-01-15T07:12:38;15.70;;;6.10;;
25409;SDS011;13339;50.840;4.346;2024-01-15T07:15:04;9.80;;;5.37;;
25409;SDS011;13339;50.840;4.346;2024-01-15T07:17:32;10.60;;;4.63;;
25409;SDS011;13339;50.840;4.346;2024-01-15T07:19:58;9.53;;;4.10;;
25409;SDS011;13339;50.840;4.346;2024-01-15T07:22:23;8.83;;;4.17;;
25409;SDS011;13339;50.840;4.346;2024-01-15T07:24:49;8.73;;;4.60;;
25409;SDS011;13339;50.840;4.346;2024-01-15T07:27:14;8.90;;;4.37;;
25409;SDS011;13339;50.840;4.346;2024-01-15T07:29:40;8.43;;;4.83;;
25409;SDS011;13339;50.840;4.346;2024-01-15T07:32:05;14.00;;;5.00;;
25409;SDS011;13339;50.840;4.346;2024-01-15T07:34:32;12.50;;;5.27;;
25409;SDS011;13339;50.840;4.346;2024-01-15T07:36:58;13.33;;;4.73;;
25409;SDS011;13339;50.840;4.346;2024-01-15T07:39:23;8.63;;;4.60;;
25409;SDS011;13339;50.840;4.346;2024-01-15T07:41:50;15.03;;;5.47;;
25409;SDS011;13339;50.840;4.346;2024-01-15T07:44:16;11.20;;;5.13;;
25409;SDS011;13339;50.840;4.346;2024-01-15T07:46:45;10.73;;;5.37;;
25409;SDS011;13339;50.840;4.346;2024-01-15T07:49:11;9.33;;;5.50;;
25409;SDS011;13339;50.840;4.346;2024-01-15T07:51:37;10.93;;;5.57;;
25409;SDS011;13339;50.840;4.346;2024-01-15T07:54:05;11.03;;;6.10;;
25409;SDS011;13339;50.840;4.346;2024-01-15T07:56:31;12.33;;;6.47;;
25409;SDS011;13339;50.840;4.346;2024-01-15T07:58:57;10.80;;;6.87;;
25409;SDS011;13339;50.840;4.346;2024-01-15T08:01:22;13.43;;;8.00;;
25409;SDS011;13339;50.840;4.346;2024-01-15T08:03:48;16.23;;;7.07;;
25409;SDS011;13339;50.840;4.346;2024-01-15T08:06:13;11.17;;;6.93;;
25409;SDS011;13339;50.840;4.346;2024-01-15T08:08:39;11.03;;;6.60;;
25409;SDS011;13339;50.840;4.346;2024-01-15T08:11:05;11.57;;;6.20;;
25409;SDS011;13339;50.840;4.346;2024-01-15T08:13:30;13.00;;;6.13;;
25409;SDS011;13339;50.840;4.346;2024-01-15T08:15:56;14.35;;;6.95;;
25409;SDS011;13339;50.840;4.346;2024-01-15T08:18:21;13.80;;;6.47;;
25409;SDS011;13339;50.840;4.346;2024-01-15T08:20:47;15.63;;;6.07;;
25409;SDS011;13339;50.840;4.346;2024-01-15T08:23:13;12.70;;;5.97;;
25409;SDS011;13339;50.840;4.346;2024-01-15T08:25:39;10.83;;;4.73;;
25409;SDS011;13339;50.840;4.346;2024-01-15T08:28:04;7.40;;;4.50;;
25409;SDS011;13339;50.840;4.346;2024-01-15T08:30:30;11.60;;;3.40;;
25409;SDS011;13339;50.840;4.346;2024-01-15T08:32:56;6.33;;;3.27;;
25409;SDS011;13339;50.840;4.346;2024-01-15T08:35:22;6.37;;;3.20;;
25409;SDS011;13339;50.840;4.346;2024-01-15T08:37:51;9.97;;;3.60;;
25409;SDS011;13339;50.840;4.346;2024-01-15T08:40:17;16.40;;;3.07;;
25409;SDS011;13339;50.840;4.346;2024-01-15T08:42:44;9.33;;;2.67;;
25409;SDS011;13339;50.840;4.346;2024-01-15T08:45:10;11.83;;;2.50;;
25409;SDS011;13339;50.840;4.346;2024-01-15T08:47:36;7.73;;;3.13;;
25409;SDS011;13339;50.840;4.346;2024-01-15T08:50:02;8.97;;;2.80;;
25409;SDS011;13339;50.840;4.346;2024-01-15T08:52:28;6.77;;;2.73;;
25409;SDS011;13339;50.840;4.346;2024-01-15T08:54:56;8.40;;;2.50;;
25409;SDS011;13339;50.840;4.346;2024-01-15T08:57:22;5.60;;;2.57;;
25409;SDS011;13339;50.840;4.346;2024-01-15T08:59:48;8.53;;;2.73;;
25409;SDS011;13339;50.840;4.346;2024-01-15T09:02:14;10.37;;;2.60;;
25409;SDS011;13339;50.840;4.346;2024-01-15T09:04:40;9.00;;;2.53;;
25409;SDS011;13339;50.840;4.346;2024-01-15T09:07:07;8.13;;;2.10;;
25409;SDS011;13339;50.840;4.346;2024-01-15T09:09:32;7.63;;;2.40;;
25409;SDS011;13339;50.840;4.346;2024-01-15T09:11:59;12.23;;;2.33;;
25409;SDS011;13339;50.840;4.346;2024-01-15T09:14:25;13.83;;;3.00;;
25409;SDS011;13339;50.840;4.346;2024-01-15T09:16:52;9.00;;;2.37;;
25409;SDS011;13339;50.840;4.346;2024-01-15T09:19:17;14.97;;;5.97;;
25409;SDS011;13339;50.840;4.346;2024-01-15T09:21:43;10.33;;;2.37;;
25409;SDS011;13339;50.840;4.346;2024-01-15T09:24:09;6.00;;;2.03;;
25409;SDS011;13339;50.840;4.346;2024-01-15T09:26:34;7.83;;;2.03;;
25409;SDS011;13339;50.840;4.346;2024-01-15T09:29:00;7.90;;;3.00;;
25409;SDS011;13339;50.840;4.346;2024-01-15T09:31:26;15.07;;;2.63;;
25409;SDS011;13339;50.840;4.346;2024-01-15T09:33:52;8.97;;;2.30;;
25409;SDS011;13339;50.840;4.346;2024-01-15T09:36:21;7.07;;;2.40;;
25409;SDS011;13339;50.840;4.346;2024-01-15T09:38:47;11.40;;;3.03;;
25409;SDS011;13339;50.840;4.346;2024-01-15T09:41:13;8.07;;;2.20;;
25409;SDS011;13339;50.840;4.346;2024-01-15T09:43:39;10.57;;;2.57;;
25409;SDS011;13339;50.840;4.346;2024-01-15T09:46:05;8.30;;;2.17;;
25409;SDS011;13339;50.840;4.346;2024-01-15T09:48:31;8.93;;;2.60;;
25409;SDS011;13339;50.840;4.346;2024-01-15T09:50:59;7.27;;;2.30;;
25409;SDS011;13339;50.840;4.346;2024-01-15T09:53:26;11.57;;;2.10;;
25409;SDS011;13339;50.840;4.346;2024-01-15T09:55:52;10.87;;;2.20;;
25409;SDS011;13339;50.840;4.346;2024-01-15T09:58:18;7.17;;;2.37;;
25409;SDS011;13339;50.840;4.346;2024-01-15T10:00:46;6.17;;;1.83;;
25409;SDS011;13339;50.840;4.346;2024-01-15T10:03:15;11.13;;;2.13;;
25409;SDS011;13339;50.840;4.346;2024-01-15T10:05:41;10.63;;;2.53;;
25409;SDS011;13339;50.840;4.346;2024-01-15T10:08:07;11.93;;;2.97;;
25409;SDS011;13339;50.840;4.346;2024-01-15T10:10:33;9.53;;;1.87;;
25409;SDS011;13339;50.840;4.346;2024-01-15T10:13:01;7.33;;;1.90;;
25409;SDS011;13339;50.840;4.346;2024-01-15T10:15:29;7.53;;;2.00;;
25409;SDS011;13339;50.840;4.346;2024-01-15T10:17:54;5.00;;;2.00;;
25409;SDS011;13339;50.840;4.346;2024-01-15T10:20:20;9.20;;;2.13;;
25409;SDS011;13339;50.840;4.346;2024-01-15T10:22:49;10.93;;;2.37;;
25409;SDS011;13339;50.840;4.346;2024-01-15T10:25:16;6.03;;;1.83;;
25409;SDS011;13339;50.840;4.346;2024-01-15T10:27:47;8.50;;;2.23;;
25409;SDS011;13339;50.840;4.346;2024-01-15T10:30:27;8.10;;;2.20;;
25409;SDS011;13339;50.840;4.346;2024-01-15T10:33:00;9.17;;;2.40;;
25409;SDS011;13339;50.840;4.346;2024-01-15T10:35:29;7.60;;;2.20;;
25409;SDS011;13339;50.840;4.346;2024-01-15T10:37:55;7.20;;;2.10;;
25409;SDS011;13339;50.840;4.346;2024-01-15T10:40:21;5.60;;;1.93;;
25409;SDS011;13339;50.840;4.346;2024-01-15T10:42:47;12.53;;;2.93;;
25409;SDS011;13339;50.840;4.346;2024-01-15T10:45:13;10.33;;;2.10;;
25409;SDS011;13339;50.840;4.346;2024-01-15T10:47:39;12.07;;;2.27;;
25409;SDS011;13339;50.840;4.346;2024-01-15T10:50:06;9.80;;;2.10;;
25409;SDS011;13339;50.840;4.346;2024-01-15T10:52:35;7.87;;;2.07;;
25409;SDS011;13339;50.840;4.346;2024-01-15T10:55:05;14.37;;;2.93;;
25409;SDS011;13339;50.840;4.346;2024-01-15T10:57:37;9.17;;;2.10;;
25409;SDS011;13339;50.840;4.346;2024-01-15T11:00:03;9.37;;;1.90;;
25409;SDS011;13339;50.840;4.346;2024-01-15T11:02:34;7.13;;;2.00;;
25409;SDS011;13339;50.840;4.346;2024-01-15T11:05:02;10.23;;;1.87;;
25409;SDS011;13339;50.840;4.346;2024-01-15T11:07:29;8.17;;;2.20;;
25409;SDS011;13339;50.840;4.346;2024-01-15T11:09:55;9.83;;;2.27;;
25409;SDS011;13339;50.840;4.346;2024-01-15T11:12:23;5.43;;;1.93;;
25409;SDS011;13339;50.840;4.346;2024-01-15T11:14:49;12.37;;;2.10;;
25409;SDS011;13339;50.840;4.346;2024-01-15T11:17:16;7.80;;;1.80;;
25409;SDS011;13339;50.840;4.346;2024-01-15T11:22:10;13.07;;;1.77;;
25409;SDS011;13339;50.840;4.346;2024-01-15T11:24:54;9.87;;;1.83;;
25409;SDS011;13339;50.840;4.346;2024-01-15T11:27:39;10.87;;;2.00;;
25409;SDS011;13339;50.840;4.346;2024-01-15T11:30:12;15.23;;;2.03;;
25409;SDS011;13339;50.840;4.346;2024-01-15T11:32:39;5.93;;;1.90;;
25409;SDS011;13339;50.840;4.346;2024-01-15T11:35:08;11.00;;;2.70;;
25409;SDS011;13339;50.840;4.346;2024-01-15T11:40:17;7.13;;;1.87;;
25409;SDS011;13339;50.840;4.346;2024-01-15T11:42:44;9.57;;;2.10;;
25409;SDS011;13339;50.840;4.346;2024-01-15T11:45:10;5.27;;;1.60;;
25409;SDS011;13339;50.840;4.346;2024-01-15T11:48:21;10.20;;;1.80;;
25409;SDS011;13339;50.840;4.346;2024-01-15T11:50:30;11.43;;;2.20;;
25409;SDS011;13339;50.840;4.346;2024-01-15T11:52:59;10.57;;;2.13;;
25409;SDS011;13339;50.840;4.346;2024-01-15T11:55:27;10.10;;;2.27;;
25409;SDS011;13339;50.840;4.346;2024-01-15T11:57:58;6.03;;;2.40;;
25409;SDS011;13339;50.840;4.346;2024-01-15T12:00:26;6.53;;;1.87;;
25409;SDS011;13339;50.840;4.346;2024-01-15T12:02:52;11.37;;;1.67;;
25409;SDS011;13339;50.840;4.346;2024-01-15T12:05:18;12.23;;;2.60;;
25409;SDS011;13339;50.840;4.346;2024-01-15T12:07:45;10.27;;;2.67;;
25409;SDS011;13339;50.840;4.346;2024-01-15T12:10:18;10.67;;;1.83;;
25409;SDS011;13339;50.840;4.346;2024-01-15T12:15:14;6.53;;;1.63;;
25409;SDS011;13339;50.840;4.346;2024-01-15T12:17:40;10.47;;;1.70;;
25409;SDS011;13339;50.840;4.346;2024-01-15T12:20:06;6.13;;;1.70;;
25409;SDS011;13339;50.840;4.346;2024-01-15T12:22:32;8.00;;;1.70;;
25409;SDS011;13339;50.840;4.346;2024-01-15T12:24:58;7.77;;;2.10;;
25409;SDS011;13339;50.840;4.346;2024-01-15T12:27:23;4.20;;;1.50;;
25409;SDS011;13339;50.840;4.346;2024-01-15T12:29:50;10.67;;;1.43;;
25409;SDS011;13339;50.840;4.346;2024-01-15T12:32:18;6.63;;;2.10;;
25409;SDS011;13339;50.840;4.346;2024-01-15T12:34:44;9.87;;;1.60;;
25409;SDS011;13339;50.840;4.346;2024-01-15T12:37:09;7.40;;;1.60;;
25409;SDS011;13339;50.840;4.346;2024-01-15T12:39:37;6.00;;;1.50;;
25409;SDS011;13339;50.840;4.346;2024-01-15T12:42:03;5.67;;;1.80;;
25409;SDS011;13339;50.840;4.346;2024-01-15T12:44:29;14.43;;;1.60;;
25409;SDS011;13339;50.840;4.346;2024-01-15T12:46:55;6.97;;;2.08;;
25409;SDS011;13339;50.840;4.346;2024-01-15T12:49:23;8.60;;;1.60;;
25409;SDS011;13339;50.840;4.346;2024-01-15T12:52:32;10.37;;;1.80;;
25409;SDS011;13339;50.840;4.346;2024-01-15T12:54:38;8.00;;;2.10;;
25409;SDS011;13339;50.840;4.346;2024-01-15T12:57:03;7.93;;;2.10;;
25409;SDS011;13339;50.840;4.346;2024-01-15T12:59:29;7.90;;;1.83;;
25409;SDS011;13339;50.840;4.346;2024-01-15T13:01:55;9.53;;;1.70;;
25409;SDS011;13339;50.840;4.346;2024-01-15T13:04:21;7.83;;;1.60;;
25409;SDS011;13339;50.840;4.346;2024-01-15T13:06:48;4.77;;;1.30;;
25409;SDS011;13339;50.840;4.346;2024-01-15T13:09:15;10.03;;;1.80;;
25409;SDS011;13339;50.840;4.346;2024-01-15T13:11:40;10.13;;;2.20;;
25409;SDS011;13339;50.840;4.346;2024-01-15T13:14:06;10.70;;;1.73;;
25409;SDS011;13339;50.840;4.346;2024-01-15T13:16:31;7.87;;;1.70;;
25409;SDS011;13339;50.840;4.346;2024-01-15T13:18:57;7.60;;;1.80;;
25409;SDS011;13339;50.840;4.346;2024-01-15T13:21:23;10.83;;;2.40;;
25409;SDS011;13339;50.840;4.346;2024-01-15T13:23:49;10.90;;;1.87;;
25409;SDS011;13339;50.840;4.346;2024-01-15T13:26:15;11.33;;;2.30;;
25409;SDS011;13339;50.840;4.346;2024-01-15T13:28:43;8.60;;;1.97;;
25409;SDS011;13339;50.840;4.346;2024-01-15T13:31:09;9.67;;;1.90;;
25409;SDS011;13339;50.840;4.346;2024-01-15T13:33:34;16.43;;;2.00;;
25409;SDS011;13339;50.840;4.346;2024-01-15T13:36:00;10.20;;;2.50;;
25409;SDS011;13339;50.840;4.346;2024-01-15T13:38:25;8.87;;;1.90;;
25409;SDS011;13339;50.840;4.346;2024-01-15T13:40:52;8.10;;;2.30;;
25409;SDS011;13339;50.840;4.346;2024-01-15T13:43:20;15.27;;;2.57;;
25409;SDS011;13339;50.840;4.346;2024-01-15T13:45:45;11.33;;;2.30;;
25409;SDS011;13339;50.840;4.346;2024-01-15T13:48:11;10.87;;;2.47;;
25409;SDS011;13339;50.840;4.346;2024-01-15T13:50:37;10.90;;;2.23;;
25409;SDS011;13339;50.840;4.346;2024-01-15T13:53:03;10.70;;;2.20;;
25409;SDS011;13339;50.840;4.346;2024-01-15T13:55:29;15.60;;;2.80;;
25409;SDS011;13339;50.840;4.346;2024-01-15T13:57:55;16.07;;;2.20;;
25409;SDS011;13339;50.840;4.346;2024-01-15T14:00:20;10.17;;;2.50;;
25409;SDS011;13339;50.840;4.346;2024-01-15T14:02:46;8.87;;;1.77;;
25409;SDS011;13339;50.840;4.346;2024-01-15T14:05:12;11.00;;;2.27;;
25409;SDS011;13339;50.840;4.346;2024-01-15T14:07:38;9.03;;;2.20;;
25409;SDS011;13339;50.840;4.346;2024-01-15T14:10:05;6.37;;;1.90;;
25409;SDS011;13339;50.840;4.346;2024-01-15T14:12:32;9.30;;;2.27;;
25409;SDS011;13339;50.840;4.346;2024-01-15T14:14:58;14.17;;;2.10;;
25409;SDS011;13339;50.840;4.346;2024-01-15T14:17:24;7.10;;;2.03;;
25409;SDS011;13339;50.840;4.346;2024-01-15T14:19:50;13.53;;;3.27;;
25409;SDS011;13339;50.840;4.346;2024-01-15T14:22:16;14.53;;;2.40;;
25409;SDS011;13339;50.840;4.346;2024-01-15T14:24:41;10.80;;;1.90;;
25409;SDS011;13339;50.840;4.346;2024-01-15T14:27:07;9.50;;;2.17;;
25409;SDS011;13339;50.840;4.346;2024-01-15T14:29:34;11.03;;;2.10;;
25409;SDS011;13339;50.840;4.346;2024-01-15T14:32:00;8.30;;;2.70;;
25409;SDS011;13339;50.840;4.346;2024-01-15T14:34:26;5.73;;;1.80;;
25409;SDS011;13339;50.840;4.346;2024-01-15T14:36:52;10.03;;;2.23;;
25409;SDS011;13339;50.840;4.346;2024-01-15T14:39:19;6.20;;;1.73;;
25409;SDS011;13339;50.840;4.346;2024-01-15T14:41:44;2.97;;;1.50;;
25409;SDS011;13339;50.840;4.346;2024-01-15T14:44:11;8.57;;;1.60;;